createdAt,value
2022-09-21T00:01:28.998Z,101495.22
2022-09-21T00:03:59.707Z,101492.50
2022-09-21T00:06:31.963Z,101491.75
2022-09-21T00:08:58.854Z,101492.81
2022-09-21T00:11:32.206Z,101501.03
2022-09-21T00:14:04.392Z,101500.94
2022-09-21T00:16:32.069Z,101503.00
2022-09-21T00:19:00.302Z,101502.25
2022-09-21T00:21:28.192Z,101496.94
2022-09-21T00:23:55.403Z,101507.41
2022-09-21T00:26:26.415Z,101506.66
2022-09-21T00:28:59.837Z,101506.94
2022-09-21T00:31:28.109Z,101509.44
2022-09-21T00:33:55.275Z,101509.56
2022-09-21T00:36:24.987Z,101509.25
2022-09-21T00:38:58.674Z,101509.16
2022-09-21T00:41:27.203Z,101513.19
2022-09-21T00:44:26.100Z,101509.66
2022-09-21T00:46:56.574Z,101510.66
2022-09-21T00:49:24.399Z,101515.25
2022-09-21T00:51:53.210Z,101517.22
2022-09-21T00:54:32.528Z,101506.75
2022-09-21T00:57:01.648Z,101512.91
2022-09-21T00:59:31.085Z,101518.06
2022-09-21T01:01:59.701Z,101520.56
2022-09-21T01:04:28.306Z,101512.81
2022-09-21T01:06:58.308Z,101513.38
2022-09-21T01:09:25.874Z,101517.00
2022-09-21T01:12:20.466Z,101517.22
2022-09-21T01:15:30.978Z,101522.22
2022-09-21T01:18:38.443Z,101527.56
2022-09-21T01:21:18.629Z,101523.94
2022-09-21T01:24:12.648Z,101524.56
2022-09-21T01:26:57.873Z,101515.44
2022-09-21T01:29:50.255Z,101515.88
2022-09-21T01:32:37.094Z,101517.00
2022-09-21T01:35:18.976Z,101516.09
2022-09-21T01:38:12.568Z,101511.44
2022-09-21T01:40:44.270Z,101518.97
2022-09-21T01:43:35.602Z,101515.88
2022-09-21T01:46:05.065Z,101513.66
2022-09-21T01:48:40.141Z,101518.31
2022-09-21T01:51:10.471Z,101517.47
2022-09-21T01:54:07.778Z,101526.06
2022-09-21T01:56:49.202Z,101522.72
2022-09-21T01:59:49.197Z,101525.03
2022-09-21T02:02:26.221Z,101517.22
2022-09-21T02:04:53.185Z,101522.59
2022-09-21T02:07:20.142Z,101518.50
2022-09-21T02:09:48.221Z,101522.06
2022-09-21T02:12:18.953Z,101521.13
2022-09-21T02:14:46.654Z,101520.16
2022-09-21T02:18:04.774Z,101514.66
2022-09-21T02:20:40.525Z,101518.78
2022-09-21T02:23:49.232Z,101516.78
2022-09-21T02:26:26.726Z,101519.13
2022-09-21T02:29:11.872Z,101512.09
2022-09-21T02:31:53.520Z,101516.97
2022-09-21T02:34:39.896Z,101517.66
2022-09-21T02:37:31.113Z,101518.28
2022-09-21T02:40:25.287Z,101516.38
2022-09-21T02:42:59.523Z,101505.28
2022-09-21T02:45:34.192Z,101520.94
2022-09-21T02:48:14.339Z,101512.50
2022-09-21T02:51:04.372Z,101515.59
2022-09-21T02:53:36.969Z,101512.84
2022-09-21T02:56:07.261Z,101516.25
2022-09-21T02:58:45.016Z,101515.09
2022-09-21T03:01:13.572Z,101512.38
2022-09-21T03:03:41.227Z,101509.03
2022-09-21T03:06:08.294Z,101507.03
2022-09-21T03:08:35.169Z,101507.53
2022-09-21T03:11:02.821Z,101507.38
2022-09-21T03:13:30.076Z,101501.56
2022-09-21T03:16:03.598Z,101512.00
2022-09-21T03:18:31.016Z,101509.81
2022-09-21T03:20:58.225Z,101513.09
2022-09-21T03:23:25.278Z,101520.66
2022-09-21T03:25:52.533Z,101516.47
2022-09-21T03:28:19.903Z,101519.56
2022-09-21T03:30:49.852Z,101522.03
2022-09-21T03:33:19.012Z,101524.03
2022-09-21T03:35:48.256Z,101522.03
2022-09-21T03:38:16.489Z,101523.19
2022-09-21T03:48:30.971Z,101525.41
2022-09-21T03:50:59.934Z,101527.91
2022-09-21T03:53:26.920Z,101529.59
2022-09-21T03:56:01.870Z,101534.97
2022-09-21T03:58:30.800Z,101533.31
2022-09-21T04:01:03.561Z,101527.81
2022-09-21T04:03:30.522Z,101535.16
2022-09-21T04:05:57.767Z,101528.84
2022-09-21T04:08:24.788Z,101531.38
2022-09-21T04:10:56.208Z,101535.84
2022-09-21T04:13:26.236Z,101532.63
2022-09-21T04:15:53.125Z,101532.38
2022-09-21T04:18:23.012Z,101534.63
2022-09-21T04:20:52.735Z,101537.53
2022-09-21T04:23:22.433Z,101540.38
2022-09-21T04:25:53.648Z,101541.81
2022-09-21T04:28:20.545Z,101541.34
2022-09-21T04:30:47.540Z,101544.13
2022-09-21T04:33:14.860Z,101550.94
2022-09-21T04:35:42.680Z,101553.13
2022-09-21T04:38:09.513Z,101552.13
2022-09-21T04:40:36.388Z,101544.56
2022-09-21T04:43:03.237Z,101554.72
2022-09-21T04:45:30.129Z,101555.47
2022-09-21T04:47:56.954Z,101558.28
2022-09-21T04:50:23.789Z,101558.44
2022-09-21T04:52:50.616Z,101567.84
2022-09-21T04:55:17.478Z,101560.53
2022-09-21T04:57:44.337Z,101564.91
2022-09-21T05:00:11.771Z,101570.28
2022-09-21T05:02:38.583Z,101567.91
2022-09-21T05:05:05.913Z,101566.56
2022-09-21T05:07:32.715Z,101570.28
2022-09-21T05:10:05.222Z,101573.63
2022-09-21T05:12:33.347Z,101576.81
2022-09-21T05:15:00.538Z,101588.28
2022-09-21T05:17:27.831Z,101580.03
2022-09-21T05:19:54.967Z,101580.94
2022-09-21T05:22:21.791Z,101578.03
2022-09-21T05:24:48.643Z,101584.75
2022-09-21T05:27:15.551Z,101581.41
2022-09-21T05:29:42.652Z,101590.66
2022-09-21T05:32:45.050Z,101588.13
2022-09-21T05:35:35.331Z,101585.69
2022-09-21T05:38:16.977Z,101585.84
2022-09-21T05:40:44.713Z,101587.84
2022-09-21T05:43:12.263Z,101591.75
2022-09-21T05:45:47.566Z,101587.41
2022-09-21T05:48:33.684Z,101595.13
2022-09-21T05:51:43.568Z,101598.72
2022-09-21T05:54:21.916Z,101609.66
2022-09-21T05:57:13.814Z,101607.50
2022-09-21T06:00:11.742Z,101606.00
2022-09-21T06:03:26.658Z,101613.16
2022-09-21T06:05:53.552Z,101618.63
2022-09-21T06:08:20.426Z,101613.53
2022-09-21T06:10:47.272Z,101622.59
2022-09-21T06:13:14.562Z,101616.22
2022-09-21T06:15:42.116Z,101621.19
2022-09-21T06:18:12.203Z,101623.13
2022-09-21T06:20:42.416Z,101622.97
2022-09-21T06:23:12.304Z,101628.38
2022-09-21T06:25:39.687Z,101631.50
2022-09-21T06:28:10.155Z,101629.78
2022-09-21T06:30:39.002Z,101629.09
2022-09-21T06:33:07.550Z,101628.25
2022-09-21T06:35:36.259Z,101629.09
2022-09-21T06:38:08.026Z,101628.50
2022-09-21T06:40:37.169Z,101627.78
2022-09-21T06:43:05.879Z,101629.41
2022-09-21T06:45:32.805Z,101629.50
2022-09-21T06:47:59.943Z,101638.53
2022-09-21T06:50:27.340Z,101632.75
2022-09-21T06:52:54.180Z,101638.66
2022-09-21T06:55:21.262Z,101641.09
2022-09-21T06:57:48.116Z,101638.69
2022-09-21T07:00:15.384Z,101644.00
2022-09-21T07:02:45.487Z,101640.00
2022-09-21T07:05:12.937Z,101644.31
2022-09-21T07:07:40.324Z,101636.84
2022-09-21T07:10:13.329Z,101638.03
2022-09-21T07:12:42.239Z,101637.69
2022-09-21T07:15:10.363Z,101636.66
2022-09-21T07:17:39.435Z,101640.91
2022-09-21T07:20:08.150Z,101643.38
2022-09-21T07:22:35.622Z,101644.88
2022-09-21T07:25:04.557Z,101649.59
2022-09-21T07:27:33.248Z,101637.91
2022-09-21T07:30:00.098Z,101632.88
2022-09-21T07:32:27.304Z,101640.94
2022-09-21T07:34:56.357Z,101637.03
2022-09-21T07:40:06.118Z,101645.69
2022-09-21T07:42:33.075Z,101651.13
2022-09-21T07:45:06.895Z,101651.66
2022-09-21T07:47:33.704Z,101654.88
2022-09-21T07:50:00.472Z,101650.97
2022-09-21T07:52:28.130Z,101648.44
2022-09-21T07:54:54.952Z,101656.53
2022-09-21T07:57:40.088Z,101649.72
2022-09-21T08:00:09.199Z,101648.38
2022-09-21T08:02:36.044Z,101646.16
2022-09-21T08:05:03.031Z,101649.44
2022-09-21T08:07:29.909Z,101651.66
2022-09-21T08:09:56.759Z,101651.09
2022-09-21T08:12:23.559Z,101647.69
2022-09-21T08:14:50.408Z,101642.72
2022-09-21T08:17:17.252Z,101649.00
2022-09-21T08:19:44.337Z,101644.47
2022-09-21T08:22:12.187Z,101644.41
2022-09-21T08:24:40.930Z,101649.44
2022-09-21T08:27:08.546Z,101651.38
2022-09-21T08:29:36.186Z,101644.16
2022-09-21T08:32:03.903Z,101649.72
2022-09-21T08:47:41.922Z,101648.03
2022-09-21T08:50:30.971Z,101642.00
2022-09-21T08:53:04.887Z,101645.19
2022-09-21T08:55:32.015Z,101651.56
2022-09-21T08:58:00.342Z,101651.03
2022-09-21T09:00:29.939Z,101642.56
2022-09-21T09:03:15.742Z,101635.28
2022-09-21T09:05:53.754Z,101639.31
2022-09-21T09:08:37.393Z,101632.00
2022-09-21T09:11:23.617Z,101634.47
2022-09-21T09:14:18.290Z,101626.75
2022-09-21T09:17:31.006Z,101624.53
2022-09-21T09:20:04.518Z,101620.34
2022-09-21T09:22:40.155Z,101618.03
2022-09-21T09:25:19.733Z,101614.88
2022-09-21T09:27:50.826Z,101617.78
2022-09-21T09:30:25.499Z,101609.19
2022-09-21T09:33:18.394Z,101613.69
2022-09-21T09:36:06.325Z,101605.31
2022-09-21T09:39:15.332Z,101603.31
2022-09-21T09:42:06.592Z,101610.81
2022-09-21T09:44:54.466Z,101602.66
2022-09-21T09:47:42.980Z,101596.38
2022-09-21T09:50:27.068Z,101598.47
2022-09-21T09:53:19.025Z,101593.13
2022-09-21T09:55:50.482Z,101594.38
2022-09-21T09:58:48.237Z,101591.16
2022-09-21T10:01:43.351Z,101585.25
2022-09-21T10:04:17.993Z,101578.22
2022-09-21T10:06:46.833Z,101579.47
2022-09-21T10:09:34.349Z,101566.41
2022-09-21T10:12:25.458Z,101573.19
2022-09-21T10:14:56.045Z,101575.63
2022-09-21T10:17:25.396Z,101567.56
2022-09-21T10:20:04.404Z,101564.13
2022-09-21T10:22:31.487Z,101567.06
2022-09-21T10:25:06.007Z,101566.75
2022-09-21T10:27:43.159Z,101553.88
2022-09-21T10:30:30.116Z,101548.50
2022-09-21T10:32:58.806Z,101539.19
2022-09-21T10:35:27.118Z,101545.94
2022-09-21T10:38:29.340Z,101538.13
2022-09-21T10:40:56.249Z,101533.53
2022-09-21T10:43:25.829Z,101528.41
2022-09-21T10:45:56.556Z,101526.72
2022-09-21T10:48:26.428Z,101522.75
2022-09-21T10:50:55.374Z,101522.59
2022-09-21T10:53:30.745Z,101523.31
2022-09-21T10:56:18.780Z,101522.75
2022-09-21T10:59:27.582Z,101518.44
2022-09-21T11:01:58.187Z,101513.13
2022-09-21T11:04:47.934Z,101515.38
2022-09-21T11:07:22.623Z,101515.91
2022-09-21T11:10:00.864Z,101518.66
2022-09-21T11:12:38.210Z,101522.28
2022-09-21T11:15:36.758Z,101518.78
2022-09-21T11:18:38.724Z,101525.72
2022-09-21T11:21:31.150Z,101522.97
2022-09-21T11:24:24.061Z,101521.94
2022-09-21T11:27:12.769Z,101521.25
2022-09-21T11:30:04.479Z,101510.66
2022-09-21T11:33:19.779Z,101519.38
2022-09-21T11:36:41.218Z,101523.75
2022-09-21T11:39:46.442Z,101514.97
2022-09-21T11:42:55.662Z,101503.41
2022-09-21T11:45:28.189Z,101510.25
2022-09-21T11:48:35.230Z,101510.13
2022-09-21T11:51:02.499Z,101502.50
2022-09-21T11:54:20.575Z,101503.88
2022-09-21T11:56:51.061Z,101503.47
2022-09-21T11:59:34.708Z,101493.41
2022-09-21T12:02:52.281Z,101500.63
2022-09-21T12:05:55.698Z,101501.75
2022-09-21T12:08:34.354Z,101490.81
2022-09-21T12:11:39.181Z,101469.69
2022-09-21T12:17:37.004Z,101481.78
2022-09-21T12:20:27.329Z,101475.34
2022-09-21T12:23:06.126Z,101470.06
2022-09-21T12:25:39.679Z,101468.88
2022-09-21T12:28:14.398Z,101474.63
2022-09-21T12:30:45.797Z,101457.91
2022-09-21T12:33:22.780Z,101464.09
2022-09-21T12:35:59.209Z,101466.56
2022-09-21T12:38:40.936Z,101458.50
2022-09-21T12:41:17.240Z,101458.03
2022-09-21T12:44:14.491Z,101453.03
2022-09-21T12:47:09.392Z,101451.84
2022-09-21T12:49:47.994Z,101447.31
2022-09-21T12:52:25.664Z,101455.25
2022-09-21T12:55:45.679Z,101448.59
2022-09-21T12:58:50.671Z,101447.50
2022-09-21T13:01:29.521Z,101444.41
2022-09-21T13:04:12.255Z,101448.44
2022-09-21T13:07:09.979Z,101441.41
2022-09-21T13:09:42.943Z,101434.06
2022-09-21T13:12:16.890Z,101439.19
2022-09-21T13:14:52.695Z,101439.97
2022-09-21T13:17:40.078Z,101435.53
2022-09-21T13:20:20.796Z,101436.78
2022-09-21T13:22:48.990Z,101431.19
2022-09-21T13:25:28.009Z,101427.13
2022-09-21T13:28:13.514Z,101428.31
2022-09-21T13:30:43.705Z,101423.66
2022-09-21T13:33:19.741Z,101435.75
2022-09-21T13:36:04.403Z,101421.03
2022-09-21T13:38:40.916Z,101418.16
2022-09-21T13:41:19.709Z,101413.81
2022-09-21T13:43:54.689Z,101416.63
2022-09-21T13:46:36.187Z,101407.16
2022-09-21T13:49:11.908Z,101401.72
2022-09-21T13:54:36.697Z,101403.56
2022-09-21T13:57:19.079Z,101389.41
2022-09-21T13:59:50.540Z,101395.53
2022-09-21T14:02:36.699Z,101389.28
2022-09-21T14:05:28.245Z,101394.94
2022-09-21T14:08:02.019Z,101380.66
2022-09-21T14:10:32.314Z,101391.09
2022-09-21T14:13:00.874Z,101380.66
2022-09-21T14:15:35.865Z,101387.34
2022-09-21T14:18:16.303Z,101392.31
2022-09-21T14:21:19.209Z,101391.56
2022-09-21T14:24:08.035Z,101389.47
2022-09-21T14:26:43.764Z,101397.53
2022-09-21T14:29:24.123Z,101391.31
2022-09-21T14:31:57.411Z,101392.69
2022-09-21T14:34:31.682Z,101391.19
2022-09-21T14:37:03.815Z,101388.75
2022-09-21T14:39:50.227Z,101392.34
2022-09-21T14:42:26.107Z,101390.09
2022-09-21T14:44:55.816Z,101379.56
2022-09-21T14:47:47.548Z,101372.69
2022-09-21T14:50:45.068Z,101371.00
2022-09-21T14:53:52.179Z,101372.06
2022-09-21T14:56:38.927Z,101378.44
2022-09-21T14:59:39.116Z,101363.31
2022-09-21T15:02:24.850Z,101362.56
2022-09-21T15:05:05.793Z,101363.59
2022-09-21T15:08:57.597Z,101359.09
2022-09-21T15:11:38.418Z,101351.94
2022-09-21T15:14:16.240Z,101355.03
2022-09-21T15:16:48.591Z,101351.78
2022-09-21T15:19:27.118Z,101353.06
2022-09-21T15:22:15.304Z,101357.91
2022-09-21T15:25:04.034Z,101351.47
2022-09-21T15:27:33.520Z,101351.06
2022-09-21T15:30:05.688Z,101349.59
2022-09-21T15:32:44.972Z,101341.72
2022-09-21T15:35:23.649Z,101340.78
2022-09-21T15:37:51.819Z,101340.63
2022-09-21T15:40:27.348Z,101339.66
2022-09-21T15:43:06.376Z,101340.59
2022-09-21T15:45:51.661Z,101341.19
2022-09-21T15:48:20.644Z,101333.94
2022-09-21T15:51:04.500Z,101336.09
2022-09-21T15:53:46.809Z,101342.34
2022-09-21T15:56:23.639Z,101348.09
2022-09-21T15:58:51.033Z,101347.97
2022-09-21T16:01:23.587Z,101334.91
2022-09-21T16:04:05.955Z,101346.75
2022-09-21T16:06:39.289Z,101355.22
2022-09-21T16:09:24.434Z,101349.66
2022-09-21T16:11:55.094Z,101356.34
2022-09-21T16:14:41.811Z,101355.66
2022-09-21T16:17:19.160Z,101356.06
2022-09-21T16:19:49.645Z,101356.38
2022-09-21T16:22:30.215Z,101361.94
2022-09-21T16:25:01.869Z,101362.66
2022-09-21T16:27:31.919Z,101367.81
2022-09-21T16:30:00.167Z,101367.81
2022-09-21T16:32:36.198Z,101367.13
2022-09-21T16:35:26.961Z,101370.44
2022-09-21T16:37:57.468Z,101370.31
2022-09-21T16:40:27.802Z,101365.31
2022-09-21T16:42:58.822Z,101373.22
2022-09-21T16:45:31.261Z,101377.00
2022-09-21T16:47:59.388Z,101372.25
2022-09-21T16:50:26.580Z,101372.25
2022-09-21T16:52:53.438Z,101375.59
2022-09-21T16:55:22.445Z,101380.84
2022-09-21T16:57:51.184Z,101371.69
2022-09-21T17:00:22.189Z,101376.38
2022-09-21T17:02:49.679Z,101377.09
2022-09-21T17:05:19.544Z,101378.56
2022-09-21T17:07:58.295Z,101377.03
2022-09-21T17:10:30.265Z,101376.88
2022-09-21T17:12:58.184Z,101382.41
2022-09-21T17:15:26.921Z,101381.72
2022-09-21T17:17:53.742Z,101380.72
2022-09-21T17:20:35.286Z,101391.41
2022-09-21T17:23:03.184Z,101390.41
2022-09-21T17:25:32.863Z,101391.81
2022-09-21T17:28:01.527Z,101386.75
2022-09-21T17:30:29.051Z,101385.84
2022-09-21T17:32:58.213Z,101392.44
2022-09-21T17:35:40.500Z,101379.06
2022-09-21T17:38:11.260Z,101386.00
2022-09-21T17:40:45.354Z,101387.09
2022-09-21T17:43:47.757Z,101390.41
2022-09-21T17:46:35.803Z,101386.03
2022-09-21T17:49:03.931Z,101386.91
2022-09-21T17:51:49.598Z,101391.22
2022-09-21T17:54:16.949Z,101393.97
2022-09-21T17:57:18.276Z,101400.16
2022-09-21T17:59:56.141Z,101399.25
2022-09-21T18:02:25.397Z,101407.88
2022-09-21T18:05:04.289Z,101407.91
2022-09-21T18:07:31.594Z,101409.50
2022-09-21T18:09:58.882Z,101407.78
2022-09-21T18:12:50.074Z,101407.53
2022-09-21T18:15:44.681Z,101405.28
2022-09-21T18:18:43.598Z,101416.28
2022-09-21T18:21:20.608Z,101418.81
2022-09-21T18:24:34.001Z,101417.28
2022-09-21T18:27:01.735Z,101420.06
2022-09-21T18:29:41.476Z,101416.94
2022-09-21T18:32:58.055Z,101425.69
2022-09-21T18:36:12.146Z,101424.50
2022-09-21T18:38:52.392Z,101427.63
2022-09-21T18:42:21.630Z,101427.38
2022-09-21T18:44:59.636Z,101425.13
2022-09-21T18:47:54.175Z,101428.63
2022-09-21T18:50:47.683Z,101428.84
2022-09-21T18:53:26.477Z,101426.69
2022-09-21T18:55:53.610Z,101437.06
2022-09-21T18:58:20.755Z,101441.06
2022-09-21T19:00:48.420Z,101434.69
2022-09-21T19:03:18.620Z,101440.06
2022-09-21T19:06:15.563Z,101430.16
2022-09-21T19:09:09.975Z,101443.06
2022-09-21T19:12:03.544Z,101441.53
2022-09-21T19:14:50.853Z,101444.88
2022-09-21T19:17:50.385Z,101443.44
2022-09-21T19:20:51.867Z,101442.72
2022-09-21T19:23:31.061Z,101450.81
2022-09-21T19:26:28.362Z,101453.81
2022-09-21T19:29:26.941Z,101449.88
2022-09-21T19:31:54.002Z,101447.50
2022-09-21T19:34:20.932Z,101440.53
2022-09-21T19:36:48.031Z,101448.09
2022-09-21T19:39:15.819Z,101449.84
2022-09-21T19:41:54.599Z,101450.69
2022-09-21T19:44:54.630Z,101445.31
2022-09-21T19:47:32.891Z,101445.03
2022-09-21T19:50:26.755Z,101449.13
2022-09-21T19:53:14.236Z,101443.00
2022-09-21T19:56:01.930Z,101446.22
2022-09-21T19:58:47.784Z,101446.94
2022-09-21T20:01:18.465Z,101442.31
2022-09-21T20:03:48.572Z,101447.28
2022-09-21T20:07:03.175Z,101444.75
2022-09-21T20:09:40.005Z,101446.41
2022-09-21T20:12:26.201Z,101447.56
2022-09-21T20:15:10.500Z,101447.47
2022-09-21T20:17:48.246Z,101443.31
2022-09-21T20:20:26.996Z,101440.22
2022-09-21T20:22:54.884Z,101440.34
2022-09-21T20:25:31.292Z,101440.47
2022-09-21T20:27:59.174Z,101440.34
2022-09-21T20:30:31.730Z,101442.50
2022-09-21T20:33:03.460Z,101441.47
2022-09-21T20:35:30.984Z,101439.38
2022-09-21T20:38:02.177Z,101438.66
2022-09-21T20:40:31.131Z,101435.03
2022-09-21T20:42:59.042Z,101432.94
2022-09-21T20:45:26.550Z,101439.66
2022-09-21T20:47:54.838Z,101441.59
2022-09-21T20:50:23.497Z,101437.47
2022-09-21T20:52:52.388Z,101436.63
2022-09-21T20:55:20.258Z,101446.47
2022-09-21T20:57:47.119Z,101436.63
2022-09-21T21:00:16.962Z,101437.34
2022-09-21T21:02:43.947Z,101440.75
2022-09-21T21:05:11.212Z,101438.97
2022-09-21T21:07:40.988Z,101436.59
2022-09-21T21:10:08.261Z,101437.06
2022-09-21T21:12:35.081Z,101440.38
2022-09-21T21:15:01.911Z,101437.97
2022-09-21T21:17:28.743Z,101440.31
2022-09-21T21:19:55.594Z,101432.66
2022-09-21T21:22:22.417Z,101434.00
2022-09-21T21:24:49.214Z,101439.22
2022-09-21T21:27:25.774Z,101436.72
2022-09-21T21:29:54.948Z,101429.78
2022-09-21T21:32:25.658Z,101434.19
2022-09-21T21:34:53.720Z,101435.44
2022-09-21T21:37:24.385Z,101439.72
2022-09-21T21:39:52.789Z,101435.34
2022-09-21T21:42:21.442Z,101429.41
2022-09-21T21:44:50.361Z,101430.88
2022-09-21T21:50:05.839Z,101426.06
2022-09-21T21:52:32.790Z,101427.81
2022-09-21T21:54:59.600Z,101433.06
2022-09-21T21:57:26.423Z,101428.13
2022-09-21T21:59:53.230Z,101424.59
2022-09-21T22:02:20.283Z,101434.69
2022-09-21T22:04:47.187Z,101429.19
2022-09-21T22:07:14.090Z,101432.53
2022-09-21T22:09:40.945Z,101423.63
2022-09-21T22:12:08.313Z,101432.03
2022-09-21T22:14:35.135Z,101423.44
2022-09-21T22:17:01.973Z,101430.16
2022-09-21T22:19:28.832Z,101433.19
2022-09-21T22:21:55.725Z,101433.81
2022-09-21T22:24:22.677Z,101430.97
2022-09-21T22:26:49.745Z,101432.97
2022-09-21T22:29:17.191Z,101427.31
2022-09-21T22:31:49.784Z,101427.13
2022-09-21T22:34:17.685Z,101420.00
2022-09-21T22:36:47.572Z,101417.25
2022-09-21T22:39:14.452Z,101419.88
2022-09-21T22:41:42.725Z,101421.34
2022-09-21T22:44:12.923Z,101423.13
2022-09-21T22:46:39.784Z,101425.97
2022-09-21T22:49:07.625Z,101420.06
2022-09-21T22:51:35.348Z,101427.81
2022-09-21T22:54:02.328Z,101424.25
2022-09-21T22:56:32.621Z,101428.44
2022-09-21T22:59:02.467Z,101422.47
2022-09-21T23:01:38.568Z,101427.25
2022-09-21T23:04:12.217Z,101429.78
2022-09-21T23:06:42.506Z,101424.53
2022-09-21T23:09:15.932Z,101425.44
2022-09-21T23:11:47.467Z,101417.28
2022-09-21T23:14:16.306Z,101422.81
2022-09-21T23:16:43.494Z,101421.16
2022-09-21T23:19:15.452Z,101415.63
2022-09-21T23:21:46.022Z,101417.56
2022-09-21T23:24:12.949Z,101420.91
2022-09-21T23:26:40.238Z,101411.44
2022-09-21T23:29:14.768Z,101410.41
2022-09-21T23:31:44.957Z,101417.34
2022-09-21T23:34:12.666Z,101406.56
2022-09-21T23:36:41.159Z,101410.34
2022-09-21T23:39:12.329Z,101412.84
2022-09-21T23:41:39.814Z,101416.31
2022-09-21T23:44:07.313Z,101414.47
2022-09-21T23:46:37.085Z,101418.03
2022-09-21T23:49:05.295Z,101416.25
2022-09-21T23:51:32.526Z,101415.81
2022-09-21T23:54:00.345Z,101411.75
2022-09-21T23:56:28.475Z,101411.13
2022-09-21T23:58:55.958Z,101406.19
